sensor_id;sensor_type;location;lat;lon;timestamp;pressure;altitude;pressure_sealevel;temperature;humidity
39301;BME280;25019;42.626;23.380;2023-04-03T00:01:35;93824.97;;;6.05;87.42
39301;BME280;25019;42.626;23.380;2023-04-03T00:04:05;93800.09;;;5.89;86.55
39301;BME280;25019;42.626;23.380;2023-04-03T00:06:31;93817.63;;;5.95;86.27
39301;BME280;25019;42.626;23.380;2023-04-03T00:08:57;93801.28;;;5.81;87.49
39301;BME280;25019;42.626;23.380;2023-04-03T00:11:23;93810.31;;;5.74;88.13
39301;BME280;25019;42.626;23.380;2023-04-03T00:13:49;93778.75;;;5.50;88.77
39301;BME280;25019;42.626;23.380;2023-04-03T00:16:15;93803.16;;;5.57;88.79
39301;BME280;25019;42.626;23.380;2023-04-03T00:18:41;93803.03;;;5.52;89.58
39301;BME280;25019;42.626;23.380;2023-04-03T00:21:08;93792.38;;;5.47;89.95
39301;BME280;25019;42.626;23.380;2023-04-03T00:23:34;93806.03;;;5.55;90.44
39301;BME280;25019;42.626;23.380;2023-04-03T00:26:00;93765.97;;;5.30;89.95
39301;BME280;25019;42.626;23.380;2023-04-03T00:28:26;93813.69;;;5.57;91.01
39301;BME280;25019;42.626;23.380;2023-04-03T00:30:52;93811.06;;;5.57;90.19
39301;BME280;25019;42.626;23.380;2023-04-03T00:33:18;93809.19;;;5.58;90.26
39301;BME280;25019;42.626;23.380;2023-04-03T00:35:47;93808.66;;;5.55;90.24
39301;BME280;25019;42.626;23.380;2023-04-03T00:38:14;93809.91;;;5.53;90.10
39301;BME280;25019;42.626;23.380;2023-04-03T00:40:43;93803.94;;;5.46;89.88
39301;BME280;25019;42.626;23.380;2023-04-03T00:43:15;93794.81;;;5.36;90.44
39301;BME280;25019;42.626;23.380;2023-04-03T00:45:44;93711.06;;;4.74;90.67
39301;BME280;25019;42.626;23.380;2023-04-03T00:48:14;93811.41;;;5.37;90.77
39301;BME280;25019;42.626;23.380;2023-04-03T00:50:42;93816.78;;;5.30;91.66
39301;BME280;25019;42.626;23.380;2023-04-03T00:53:12;93806.50;;;5.29;91.50
39301;BME280;25019;42.626;23.380;2023-04-03T00:55:38;93791.25;;;5.19;92.12
39301;BME280;25019;42.626;23.380;2023-04-03T00:58:05;93812.09;;;5.20;92.41
39301;BME280;25019;42.626;23.380;2023-04-03T01:00:32;93810.94;;;5.16;92.38
39301;BME280;25019;42.626;23.380;2023-04-03T01:02:58;93719.50;;;4.52;92.83
39301;BME280;25019;42.626;23.380;2023-04-03T01:05:25;93809.47;;;5.08;93.12
39301;BME280;25019;42.626;23.380;2023-04-03T01:07:52;93804.19;;;4.97;93.89
39301;BME280;25019;42.626;23.380;2023-04-03T01:10:19;93812.75;;;5.04;93.56
39301;BME280;25019;42.626;23.380;2023-04-03T01:12:49;93805.00;;;4.97;94.33
39301;BME280;25019;42.626;23.380;2023-04-03T01:15:24;93771.47;;;4.80;94.02
39301;BME280;25019;42.626;23.380;2023-04-03T01:17:54;93737.59;;;4.60;94.32
39301;BME280;25019;42.626;23.380;2023-04-03T01:25:37;93821.22;;;4.94;96.80
39301;BME280;25019;42.626;23.380;2023-04-03T01:28:08;93815.19;;;4.93;97.32
39301;BME280;25019;42.626;23.380;2023-04-03T01:30:59;93808.19;;;4.87;97.24
39301;BME280;25019;42.626;23.380;2023-04-03T01:33:26;93815.84;;;4.89;97.30
39301;BME280;25019;42.626;23.380;2023-04-03T01:35:52;93793.75;;;4.78;96.57
39301;BME280;25019;42.626;23.380;2023-04-03T01:38:18;93822.81;;;4.83;96.74
39301;BME280;25019;42.626;23.380;2023-04-03T01:40:44;93814.13;;;4.83;96.75
39301;BME280;25019;42.626;23.380;2023-04-03T01:43:10;93703.53;;;4.11;96.86
39301;BME280;25019;42.626;23.380;2023-04-03T01:45:35;93814.94;;;4.83;97.54
39301;BME280;25019;42.626;23.380;2023-04-03T01:48:04;93815.03;;;4.76;97.42
39301;BME280;25019;42.626;23.380;2023-04-03T01:50:30;93819.16;;;4.84;96.26
39301;BME280;25019;42.626;23.380;2023-04-03T01:52:55;93814.34;;;4.81;96.55
39301;BME280;25019;42.626;23.380;2023-04-03T01:55:21;93812.84;;;4.73;96.83
39301;BME280;25019;42.626;23.380;2023-04-03T01:57:47;93748.22;;;4.11;98.53
39301;BME280;25019;42.626;23.380;2023-04-03T02:00:13;93826.88;;;4.55;98.76
39301;BME280;25019;42.626;23.380;2023-04-03T02:02:40;93775.09;;;4.25;98.99
39301;BME280;25019;42.626;23.380;2023-04-03T02:05:06;93818.88;;;4.62;97.49
39301;BME280;25019;42.626;23.380;2023-04-03T02:07:32;93803.44;;;4.54;97.58
39301;BME280;25019;42.626;23.380;2023-04-03T02:09:58;93692.81;;;3.82;97.17
39301;BME280;25019;42.626;23.380;2023-04-03T02:12:23;93756.13;;;4.23;96.68
39301;BME280;25019;42.626;23.380;2023-04-03T02:14:49;93819.69;;;4.62;96.54
39301;BME280;25019;42.626;23.380;2023-04-03T02:17:15;93808.47;;;4.55;96.57
39301;BME280;25019;42.626;23.380;2023-04-03T02:19:41;93812.34;;;4.53;97.05
39301;BME280;25019;42.626;23.380;2023-04-03T02:22:06;93818.31;;;4.60;97.53
39301;BME280;25019;42.626;23.380;2023-04-03T02:24:32;93724.63;;;3.93;97.26
39301;BME280;25019;42.626;23.380;2023-04-03T02:26:58;93810.38;;;4.48;98.27
39301;BME280;25019;42.626;23.380;2023-04-03T02:29:24;93809.81;;;4.46;97.74
39301;BME280;25019;42.626;23.380;2023-04-03T02:31:50;93786.19;;;4.27;98.11
39301;BME280;25019;42.626;23.380;2023-04-03T02:34:17;93788.50;;;4.24;98.08
39301;BME280;25019;42.626;23.380;2023-04-03T02:36:44;93797.09;;;4.31;98.44
39301;BME280;25019;42.626;23.380;2023-04-03T02:39:11;93809.66;;;4.29;99.22
39301;BME280;25019;42.626;23.380;2023-04-03T02:41:37;93795.66;;;4.16;98.83
39301;BME280;25019;42.626;23.380;2023-04-03T02:44:10;93721.75;;;3.64;99.40
39301;BME280;25019;42.626;23.380;2023-04-03T02:46:36;93797.25;;;4.17;98.82
39301;BME280;25019;42.626;23.380;2023-04-03T02:49:02;93675.28;;;3.34;99.01
39301;BME280;25019;42.626;23.380;2023-04-03T02:51:28;93795.88;;;4.15;99.33
39301;BME280;25019;42.626;23.380;2023-04-03T02:53:54;93727.94;;;3.69;99.49
39301;BME280;25019;42.626;23.380;2023-04-03T02:56:24;93781.69;;;4.04;99.07
39301;BME280;25019;42.626;23.380;2023-04-03T02:58:50;93789.91;;;4.08;99.17
39301;BME280;25019;42.626;23.380;2023-04-03T03:01:17;93691.03;;;3.34;99.69
39301;BME280;25019;42.626;23.380;2023-04-03T03:03:42;93781.59;;;3.92;100.00
39301;BME280;25019;42.626;23.380;2023-04-03T03:06:13;93702.75;;;3.50;100.00
39301;BME280;25019;42.626;23.380;2023-04-03T03:08:40;93776.72;;;3.96;100.00
39301;BME280;25019;42.626;23.380;2023-04-03T03:11:06;93781.41;;;3.94;99.80
39301;BME280;25019;42.626;23.380;2023-04-03T03:13:32;93763.16;;;3.80;100.00
39301;BME280;25019;42.626;23.380;2023-04-03T03:15:58;93746.66;;;3.61;100.00
39301;BME280;25019;42.626;23.380;2023-04-03T03:18:25;93778.00;;;3.74;100.00
39301;BME280;25019;42.626;23.380;2023-04-03T03:21:01;93775.00;;;3.71;100.00
39301;BME280;25019;42.626;23.380;2023-04-03T03:23:28;93775.81;;;3.71;100.00
39301;BME280;25019;42.626;23.380;2023-04-03T03:25:59;93775.22;;;3.69;100.00
39301;BME280;25019;42.626;23.380;2023-04-03T03:28:26;93774.28;;;3.64;100.00
39301;BME280;25019;42.626;23.380;2023-04-03T03:30:52;93724.22;;;3.28;100.00
39301;BME280;25019;42.626;23.380;2023-04-03T03:33:19;93785.97;;;3.68;100.00
39301;BME280;25019;42.626;23.380;2023-04-03T03:35:45;93762.63;;;3.59;100.00
39301;BME280;25019;42.626;23.380;2023-04-03T03:38:11;93781.28;;;3.70;100.00
39301;BME280;25019;42.626;23.380;2023-04-03T03:40:37;93767.78;;;3.48;100.00
39301;BME280;25019;42.626;23.380;2023-04-03T03:43:04;93777.34;;;3.60;100.00
39301;BME280;25019;42.626;23.380;2023-04-03T03:45:30;93761.53;;;3.49;100.00
39301;BME280;25019;42.626;23.380;2023-04-03T03:47:56;93775.75;;;3.59;100.00
39301;BME280;25019;42.626;23.380;2023-04-03T03:50:22;93733.75;;;3.22;100.00
39301;BME280;25019;42.626;23.380;2023-04-03T03:52:48;93778.88;;;3.50;100.00
39301;BME280;25019;42.626;23.380;2023-04-03T03:55:14;93779.25;;;3.53;100.00
39301;BME280;25019;42.626;23.380;2023-04-03T03:57:40;93782.44;;;3.55;100.00
39301;BME280;25019;42.626;23.380;2023-04-03T04:00:07;93734.19;;;3.19;100.00
39301;BME280;25019;42.626;23.380;2023-04-03T04:02:41;93766.44;;;3.45;100.00
39301;BME280;25019;42.626;23.380;2023-04-03T04:05:08;93782.16;;;3.64;100.00
39301;BME280;25019;42.626;23.380;2023-04-03T04:07:34;93778.28;;;3.66;100.00
39301;BME280;25019;42.626;23.380;2023-04-03T04:10:04;93780.13;;;3.66;100.00
39301;BME280;25019;42.626;23.380;2023-04-03T04:12:30;93783.34;;;3.68;100.00
39301;BME280;25019;42.626;23.380;2023-04-03T04:14:56;93789.09;;;3.77;100.00
39301;BME280;25019;42.626;23.380;2023-04-03T04:17:22;93791.47;;;3.78;100.00
39301;BME280;25019;42.626;23.380;2023-04-03T04:19:49;93733.31;;;3.44;100.00
39301;BME280;25019;42.626;23.380;2023-04-03T04:22:15;93787.63;;;3.81;100.00
39301;BME280;25019;42.626;23.380;2023-04-03T04:24:42;93786.16;;;3.85;100.00
39301;BME280;25019;42.626;23.380;2023-04-03T04:27:08;93793.94;;;3.92;100.00
39301;BME280;25019;42.626;23.380;2023-04-03T04:29:34;93794.09;;;3.97;100.00
39301;BME280;25019;42.626;23.380;2023-04-03T04:32:05;93797.31;;;3.99;100.00
39301;BME280;25019;42.626;23.380;2023-04-03T04:34:31;93731.69;;;3.62;100.00
39301;BME280;25019;42.626;23.380;2023-04-03T04:36:57;93799.25;;;4.03;100.00
39301;BME280;25019;42.626;23.380;2023-04-03T04:39:24;93776.50;;;3.97;100.00
39301;BME280;25019;42.626;23.380;2023-04-03T04:41:51;93779.59;;;4.06;100.00
39301;BME280;25019;42.626;23.380;2023-04-03T04:44:17;93803.81;;;4.27;100.00
39301;BME280;25019;42.626;23.380;2023-04-03T04:46:43;93803.28;;;4.37;100.00
39301;BME280;25019;42.626;23.380;2023-04-03T04:49:10;93809.31;;;4.37;100.00
39301;BME280;25019;42.626;23.380;2023-04-03T04:51:35;93730.56;;;3.88;100.00
39301;BME280;25019;42.626;23.380;2023-04-03T04:54:03;93812.56;;;4.51;100.00
39301;BME280;25019;42.626;23.380;2023-04-03T04:56:29;93818.50;;;4.46;100.00
39301;BME280;25019;42.626;23.380;2023-04-03T04:58:56;93767.72;;;4.03;100.00
39301;BME280;25019;42.626;23.380;2023-04-03T05:01:22;93762.78;;;3.95;99.84
39301;BME280;25019;42.626;23.380;2023-04-03T05:04:03;93721.09;;;3.68;99.68
39301;BME280;25019;42.626;23.380;2023-04-03T05:06:30;93790.75;;;4.20;99.67
39301;BME280;25019;42.626;23.380;2023-04-03T05:08:58;93840.16;;;4.60;98.59
39301;BME280;25019;42.626;23.380;2023-04-03T05:11:25;93843.25;;;4.69;97.42
39301;BME280;25019;42.626;23.380;2023-04-03T05:13:51;93789.72;;;4.52;97.42
39301;BME280;25019;42.626;23.380;2023-04-03T05:16:17;93846.19;;;5.03;97.85
39301;BME280;25019;42.626;23.380;2023-04-03T05:18:43;93847.03;;;5.16;97.34
39301;BME280;25019;42.626;23.380;2023-04-03T05:21:16;93846.09;;;5.34;96.68
39301;BME280;25019;42.626;23.380;2023-04-03T05:23:44;93846.91;;;5.46;95.70
39301;BME280;25019;42.626;23.380;2023-04-03T05:26:10;93761.41;;;5.01;94.33
39301;BME280;25019;42.626;23.380;2023-04-03T05:28:37;93842.53;;;5.64;94.41
39301;BME280;25019;42.626;23.380;2023-04-03T05:31:03;93843.91;;;5.78;94.19
39301;BME280;25019;42.626;23.380;2023-04-03T05:33:33;93842.50;;;5.88;93.74
39301;BME280;25019;42.626;23.380;2023-04-03T05:36:14;93840.22;;;6.03;93.45
39301;BME280;25019;42.626;23.380;2023-04-03T05:38:44;93770.59;;;5.75;92.71
39301;BME280;25019;42.626;23.380;2023-04-03T05:41:10;93822.28;;;6.17;92.78
39301;BME280;25019;42.626;23.380;2023-04-03T05:43:36;93828.00;;;6.26;92.36
39301;BME280;25019;42.626;23.380;2023-04-03T05:46:12;93845.22;;;6.45;92.50
39301;BME280;25019;42.626;23.380;2023-04-03T05:48:39;93741.50;;;5.99;92.24
39301;BME280;25019;42.626;23.380;2023-04-03T05:51:06;93810.56;;;6.54;92.20
39301;BME280;25019;42.626;23.380;2023-04-03T05:53:35;93766.28;;;6.27;92.29
39301;BME280;25019;42.626;23.380;2023-04-03T05:56:04;93760.88;;;6.34;91.49
39301;BME280;25019;42.626;23.380;2023-04-03T05:58:33;93767.56;;;6.53;90.73
39301;BME280;25019;42.626;23.380;2023-04-03T06:00:59;93747.13;;;6.32;90.35
39301;BME280;25019;42.626;23.380;2023-04-03T06:03:26;93814.13;;;6.94;89.67
39301;BME280;25019;42.626;23.380;2023-04-03T06:05:52;93795.94;;;6.97;88.79
39301;BME280;25019;42.626;23.380;2023-04-03T06:08:17;93807.44;;;7.25;87.70
39301;BME280;25019;42.626;23.380;2023-04-03T06:10:44;93812.34;;;7.33;87.25
39301;BME280;25019;42.626;23.380;2023-04-03T06:13:10;93810.63;;;7.44;86.61
39301;BME280;25019;42.626;23.380;2023-04-03T06:15:36;93799.91;;;7.51;85.62
39301;BME280;25019;42.626;23.380;2023-04-03T06:18:02;93803.31;;;7.69;84.86
39301;BME280;25019;42.626;23.380;2023-04-03T06:20:28;93807.28;;;7.71;84.93
39301;BME280;25019;42.626;23.380;2023-04-03T06:22:53;93800.03;;;7.61;85.03
39301;BME280;25019;42.626;23.380;2023-04-03T06:25:19;93808.41;;;7.75;85.43
39301;BME280;25019;42.626;23.380;2023-04-03T06:27:45;93816.66;;;8.01;84.48
39301;BME280;25019;42.626;23.380;2023-04-03T06:30:11;93817.44;;;8.24;83.53
39301;BME280;25019;42.626;23.380;2023-04-03T06:32:37;93819.72;;;8.37;81.86
39301;BME280;25019;42.626;23.380;2023-04-03T06:35:05;93814.00;;;8.23;80.83
39301;BME280;25019;42.626;23.380;2023-04-03T06:37:30;93763.63;;;8.13;80.36
39301;BME280;25019;42.626;23.380;2023-04-03T06:39:58;93836.03;;;8.79;79.65
39301;BME280;25019;42.626;23.380;2023-04-03T06:42:25;93745.91;;;8.41;77.60
39301;BME280;25019;42.626;23.380;2023-04-03T06:44:58;93807.78;;;8.84;76.27
39301;BME280;25019;42.626;23.380;2023-04-03T06:47:23;93774.03;;;8.47;76.75
39301;BME280;25019;42.626;23.380;2023-04-03T06:49:49;93821.34;;;8.66;77.98
39301;BME280;25019;42.626;23.380;2023-04-03T06:52:14;93797.06;;;8.47;78.14
39301;BME280;25019;42.626;23.380;2023-04-03T06:54:40;93750.38;;;8.35;77.34
39301;BME280;25019;42.626;23.380;2023-04-03T06:57:07;93773.41;;;8.62;76.29
39301;BME280;25019;42.626;23.380;2023-04-03T06:59:33;93829.41;;;9.09;75.27
39301;BME280;25019;42.626;23.380;2023-04-03T07:01:59;93825.00;;;9.20;74.06
39301;BME280;25019;42.626;23.380;2023-04-03T07:04:25;93823.31;;;9.46;74.17
39301;BME280;25019;42.626;23.380;2023-04-03T07:06:51;93823.69;;;9.60;73.71
39301;BME280;25019;42.626;23.380;2023-04-03T07:09:18;93825.25;;;9.56;74.08
39301;BME280;25019;42.626;23.380;2023-04-03T07:11:44;93805.63;;;9.57;73.89
39301;BME280;25019;42.626;23.380;2023-04-03T07:14:09;93807.66;;;9.93;73.20
39301;BME280;25019;42.626;23.380;2023-04-03T07:16:35;93810.44;;;10.13;72.69
39301;BME280;25019;42.626;23.380;2023-04-03T07:19:02;93798.50;;;10.16;71.97
39301;BME280;25019;42.626;23.380;2023-04-03T07:21:28;93714.75;;;9.62;71.60
39301;BME280;25019;42.626;23.380;2023-04-03T07:23:54;93702.56;;;9.71;71.44
39301;BME280;25019;42.626;23.380;2023-04-03T07:26:22;93706.34;;;9.96;70.81
39301;BME280;25019;42.626;23.380;2023-04-03T07:28:48;93781.94;;;10.67;70.44
39301;BME280;25019;42.626;23.380;2023-04-03T07:31:16;93753.75;;;10.56;69.61
39301;BME280;25019;42.626;23.380;2023-04-03T07:33:43;93790.19;;;10.81;69.39
39301;BME280;25019;42.626;23.380;2023-04-03T07:36:10;93758.81;;;10.73;69.71
39301;BME280;25019;42.626;23.380;2023-04-03T07:38:36;93788.88;;;10.99;69.17
39301;BME280;25019;42.626;23.380;2023-04-03T07:41:03;93780.59;;;10.59;70.44
39301;BME280;25019;42.626;23.380;2023-04-03T07:43:29;93790.16;;;10.66;70.36
39301;BME280;25019;42.626;23.380;2023-04-03T07:45:54;93785.38;;;10.93;70.41
39301;BME280;25019;42.626;23.380;2023-04-03T07:48:22;93783.81;;;11.13;69.26
39301;BME280;25019;42.626;23.380;2023-04-03T07:50:48;93790.19;;;10.86;68.32
39301;BME280;25019;42.626;23.380;2023-04-03T07:53:15;93780.06;;;10.73;69.42
39301;BME280;25019;42.626;23.380;2023-04-03T07:55:41;93711.81;;;10.63;68.24
39301;BME280;25019;42.626;23.380;2023-04-03T07:58:14;93782.75;;;10.99;67.96
39301;BME280;25019;42.626;23.380;2023-04-03T08:00:41;93779.81;;;10.90;68.84
39301;BME280;25019;42.626;23.380;2023-04-03T08:03:08;93713.66;;;10.62;69.05
39301;BME280;25019;42.626;23.380;2023-04-03T08:05:40;93769.19;;;10.69;69.92
39301;BME280;25019;42.626;23.380;2023-04-03T08:08:07;93771.19;;;10.31;71.36
39301;BME280;25019;42.626;23.380;2023-04-03T08:10:33;93699.16;;;9.81;71.63
39301;BME280;25019;42.626;23.380;2023-04-03T08:12:59;93700.06;;;10.23;70.98
39301;BME280;25019;42.626;23.380;2023-04-03T08:15:25;93721.34;;;10.48;69.54
39301;BME280;25019;42.626;23.380;2023-04-03T08:17:51;93778.47;;;10.92;69.67
39301;BME280;25019;42.626;23.380;2023-04-03T08:20:17;93777.19;;;11.00;69.94
39301;BME280;25019;42.626;23.380;2023-04-03T08:22:43;93649.66;;;10.48;68.64
39301;BME280;25019;42.626;23.380;2023-04-03T08:25:09;93764.66;;;11.21;70.12
39301;BME280;25019;42.626;23.380;2023-04-03T08:27:34;93767.06;;;11.02;70.92
39301;BME280;25019;42.626;23.380;2023-04-03T08:30:00;93768.94;;;10.81;71.90
39301;BME280;25019;42.626;23.380;2023-04-03T08:32:26;93726.69;;;10.74;71.50
39301;BME280;25019;42.626;23.380;2023-04-03T08:34:52;93763.34;;;10.98;71.28
39301;BME280;25019;42.626;23.380;2023-04-03T08:37:18;93767.06;;;11.23;70.60
39301;BME280;25019;42.626;23.380;2023-04-03T08:39:44;93709.16;;;10.94;70.09
39301;BME280;25019;42.626;23.380;2023-04-03T08:50:26;93755.28;;;11.60;70.28
39301;BME280;25019;42.626;23.380;2023-04-03T08:52:59;93744.63;;;11.71;69.32
39301;BME280;25019;42.626;23.380;2023-04-03T08:55:45;93739.47;;;12.05;68.23
39301;BME280;25019;42.626;23.380;2023-04-03T08:58:18;93684.66;;;11.99;66.90
39301;BME280;25019;42.626;23.380;2023-04-03T09:00:47;93738.66;;;12.55;65.93
39301;BME280;25019;42.626;23.380;2023-04-03T09:03:16;93615.25;;;11.85;65.70
39301;BME280;25019;42.626;23.380;2023-04-03T09:06:05;93734.25;;;12.80;64.30
39301;BME280;25019;42.626;23.380;2023-04-03T09:11:21;93684.13;;;12.82;62.93
39301;BME280;25019;42.626;23.380;2023-04-03T09:13:59;93678.50;;;12.83;62.81
39301;BME280;25019;42.626;23.380;2023-04-03T09:16:51;93719.28;;;13.13;62.38
39301;BME280;25019;42.626;23.380;2023-04-03T09:21:57;93704.13;;;13.38;61.99
39301;BME280;25019;42.626;23.380;2023-04-03T09:24:23;93585.34;;;12.73;60.97
39301;BME280;25019;42.626;23.380;2023-04-03T09:26:56;93701.00;;;13.60;60.15
39301;BME280;25019;42.626;23.380;2023-04-03T09:29:25;93706.94;;;13.76;58.86
39301;BME280;25019;42.626;23.380;2023-04-03T09:32:00;93698.38;;;13.80;57.45
39301;BME280;25019;42.626;23.380;2023-04-03T09:34:36;93702.22;;;13.92;57.99
39301;BME280;25019;42.626;23.380;2023-04-03T09:37:03;93708.94;;;13.36;58.75
39301;BME280;25019;42.626;23.380;2023-04-03T09:39:33;93702.59;;;13.61;57.97
39301;BME280;25019;42.626;23.380;2023-04-03T09:42:23;93688.84;;;13.49;57.38
39301;BME280;25019;42.626;23.380;2023-04-03T09:44:55;93697.31;;;13.56;56.54
39301;BME280;25019;42.626;23.380;2023-04-03T09:49:50;93689.59;;;12.96;57.56
39301;BME280;25019;42.626;23.380;2023-04-03T09:52:25;93644.94;;;12.53;59.32
39301;BME280;25019;42.626;23.380;2023-04-03T09:54:51;93684.69;;;12.79;58.93
39301;BME280;25019;42.626;23.380;2023-04-03T09:57:17;93637.13;;;12.62;58.20
39301;BME280;25019;42.626;23.380;2023-04-03T10:00:00;93678.50;;;12.83;59.12
39301;BME280;25019;42.626;23.380;2023-04-03T10:02:38;93614.06;;;12.52;57.80
39301;BME280;25019;42.626;23.380;2023-04-03T10:05:33;93656.81;;;12.95;56.77
39301;BME280;25019;42.626;23.380;2023-04-03T10:10:42;93669.09;;;12.91;56.76
39301;BME280;25019;42.626;23.380;2023-04-03T10:13:16;93673.63;;;12.96;56.70
39301;BME280;25019;42.626;23.380;2023-04-03T10:15:53;93683.31;;;12.81;56.57
39301;BME280;25019;42.626;23.380;2023-04-03T10:21:02;93668.59;;;12.59;56.29
39301;BME280;25019;42.626;23.380;2023-04-03T10:23:47;93671.03;;;12.85;56.61
39301;BME280;25019;42.626;23.380;2023-04-03T10:34:43;93583.00;;;12.02;57.44
39301;BME280;25019;42.626;23.380;2023-04-03T10:37:14;93651.09;;;12.43;58.30
39301;BME280;25019;42.626;23.380;2023-04-03T10:40:04;93594.69;;;12.01;58.84
39301;BME280;25019;42.626;23.380;2023-04-03T10:42:52;93636.00;;;12.33;59.12
39301;BME280;25019;42.626;23.380;2023-04-03T10:46:11;93635.25;;;12.27;59.70
39301;BME280;25019;42.626;23.380;2023-04-03T10:48:33;93642.16;;;12.34;60.02
39301;BME280;25019;42.626;23.380;2023-04-03T10:54:00;93644.53;;;12.30;59.72
39301;BME280;25019;42.626;23.380;2023-04-03T10:57:01;93642.91;;;12.39;60.85
39301;BME280;25019;42.626;23.380;2023-04-03T10:59:49;93597.56;;;11.70;62.57
39301;BME280;25019;42.626;23.380;2023-04-03T11:02:23;93631.50;;;11.83;63.41
39301;BME280;25019;42.626;23.380;2023-04-03T11:04:55;93649.84;;;11.85;64.93
39301;BME280;25019;42.626;23.380;2023-04-03T11:07:33;93603.28;;;11.32;66.17
39301;BME280;25019;42.626;23.380;2023-04-03T11:10:09;93534.97;;;10.67;67.34
39301;BME280;25019;42.626;23.380;2023-04-03T11:12:46;93633.69;;;11.00;70.57
39301;BME280;25019;42.626;23.380;2023-04-03T11:15:16;93650.72;;;10.94;73.79
39301;BME280;25019;42.626;23.380;2023-04-03T11:17:53;93645.94;;;10.75;76.18
39301;BME280;25019;42.626;23.380;2023-04-03T11:20:23;93623.38;;;10.31;80.74
39301;BME280;25019;42.626;23.380;2023-04-03T11:25:30;93654.94;;;10.23;87.94
39301;BME280;25019;42.626;23.380;2023-04-03T11:27:59;93652.03;;;10.24;87.90
39301;BME280;25019;42.626;23.380;2023-04-03T11:35:45;93601.81;;;9.71;96.30
39301;BME280;25019;42.626;23.380;2023-04-03T11:38:19;93647.47;;;9.88;97.23
39301;BME280;25019;42.626;23.380;2023-04-03T11:40:47;93643.97;;;9.67;98.93
39301;BME280;25019;42.626;23.380;2023-04-03T11:43:26;93658.81;;;9.68;100.00
39301;BME280;25019;42.626;23.380;2023-04-03T11:45:56;93659.28;;;9.55;100.00
39301;BME280;25019;42.626;23.380;2023-04-03T11:50:58;93666.94;;;9.41;100.00
39301;BME280;25019;42.626;23.380;2023-04-03T11:53:34;93669.28;;;9.32;100.00
39301;BME280;25019;42.626;23.380;2023-04-03T11:56:02;93547.47;;;8.41;100.00
39301;BME280;25019;42.626;23.380;2023-04-03T11:58:30;93565.44;;;8.39;100.00
39301;BME280;25019;42.626;23.380;2023-04-03T12:05:55;93674.84;;;8.82;100.00
39301;BME280;25019;42.626;23.380;2023-04-03T12:11:31;93591.91;;;8.39;100.00
39301;BME280;25019;42.626;23.380;2023-04-03T12:16:42;93672.91;;;9.16;100.00
39301;BME280;25019;42.626;23.380;2023-04-03T12:29:38;93656.47;;;9.13;100.00
39301;BME280;25019;42.626;23.380;2023-04-03T12:32:32;93655.97;;;9.17;100.00
39301;BME280;25019;42.626;23.380;2023-04-03T12:43:38;93628.22;;;8.81;100.00
39301;BME280;25019;42.626;23.380;2023-04-03T12:48:54;93616.22;;;8.68;100.00
39301;BME280;25019;42.626;23.380;2023-04-03T12:54:02;93606.03;;;8.17;100.00
39301;BME280;25019;42.626;23.380;2023-04-03T12:56:30;93617.72;;;8.21;100.00
39301;BME280;25019;42.626;23.380;2023-04-03T12:59:19;93597.78;;;8.08;100.00
39301;BME280;25019;42.626;23.380;2023-04-03T13:02:02;93608.56;;;8.02;100.00
39301;BME280;25019;42.626;23.380;2023-04-03T13:04:29;93620.78;;;8.08;100.00
39301;BME280;25019;42.626;23.380;2023-04-03T13:06:56;93622.41;;;8.14;100.00
39301;BME280;25019;42.626;23.380;2023-04-03T13:09:25;93624.44;;;8.02;100.00
39301;BME280;25019;42.626;23.380;2023-04-03T13:14:26;93561.16;;;7.62;100.00
39301;BME280;25019;42.626;23.380;2023-04-03T13:17:09;93598.94;;;7.90;100.00
39301;BME280;25019;42.626;23.380;2023-04-03T13:19:35;93610.50;;;7.84;100.00
39301;BME280;25019;42.626;23.380;2023-04-03T13:24:51;93611.00;;;7.81;100.00
39301;BME280;25019;42.626;23.380;2023-04-03T13:27:19;93551.78;;;7.49;100.00
39301;BME280;25019;42.626;23.380;2023-04-03T13:29:50;93603.88;;;7.82;100.00
39301;BME280;25019;42.626;23.380;2023-04-03T13:32:23;93568.78;;;7.59;100.00
39301;BME280;25019;42.626;23.380;2023-04-03T13:34:49;93598.53;;;7.76;100.00
39301;BME280;25019;42.626;23.380;2023-04-03T13:37:20;93553.25;;;7.40;100.00
39301;BME280;25019;42.626;23.380;2023-04-03T13:40:00;93592.38;;;7.65;100.00
39301;BME280;25019;42.626;23.380;2023-04-03T13:42:31;93537.56;;;7.28;100.00
39301;BME280;25019;42.626;23.380;2023-04-03T13:47:40;93540.53;;;7.32;100.00
39301;BME280;25019;42.626;23.380;2023-04-03T13:50:17;93588.41;;;7.68;100.00
39301;BME280;25019;42.626;23.380;2023-04-03T13:52:53;93594.03;;;7.72;100.00
39301;BME280;25019;42.626;23.380;2023-04-03T13:55:29;93591.13;;;7.73;100.00
39301;BME280;25019;42.626;23.380;2023-04-03T13:57:59;93586.28;;;7.65;100.00
39301;BME280;25019;42.626;23.380;2023-04-03T14:02:59;93588.38;;;7.63;100.00
39301;BME280;25019;42.626;23.380;2023-04-03T14:05:25;93549.78;;;7.34;100.00
39301;BME280;25019;42.626;23.380;2023-04-03T14:07:53;93590.00;;;7.69;100.00
39301;BME280;25019;42.626;23.380;2023-04-03T14:10:20;93492.97;;;7.04;100.00
39301;BME280;25019;42.626;23.380;2023-04-03T14:12:47;93586.25;;;7.60;100.00
39301;BME280;25019;42.626;23.380;2023-04-03T14:15:22;93570.13;;;7.61;100.00
39301;BME280;25019;42.626;23.380;2023-04-03T14:17:49;93540.38;;;7.44;100.00
39301;BME280;25019;42.626;23.380;2023-04-03T14:20:21;93581.34;;;7.74;100.00
39301;BME280;25019;42.626;23.380;2023-04-03T14:22:47;93498.97;;;7.22;100.00
39301;BME280;25019;42.626;23.380;2023-04-03T14:25:15;93575.53;;;7.72;100.00
39301;BME280;25019;42.626;23.380;2023-04-03T14:27:43;93552.38;;;7.57;100.00
39301;BME280;25019;42.626;23.380;2023-04-03T14:30:14;93582.19;;;7.79;100.00
39301;BME280;25019;42.626;23.380;2023-04-03T14:32:41;93523.13;;;7.36;100.00
39301;BME280;25019;42.626;23.380;2023-04-03T14:35:07;93580.00;;;7.71;100.00
39301;BME280;25019;42.626;23.380;2023-04-03T14:37:33;93531.59;;;7.38;100.00
39301;BME280;25019;42.626;23.380;2023-04-03T14:40:00;93567.81;;;7.70;100.00